createdAt,value
2022-08-26T00:02:20.583Z,30.66
2022-08-26T00:04:50.453Z,30.70
2022-08-26T00:07:19.943Z,30.74
2022-08-26T00:09:50.093Z,30.60
2022-08-26T00:12:31.502Z,30.65
2022-08-26T00:15:08.844Z,30.73
2022-08-26T00:17:40.341Z,30.64
2022-08-26T00:20:21.449Z,30.72
2022-08-26T00:22:50.788Z,30.54
2022-08-26T00:25:20.251Z,30.48
2022-08-26T00:27:50.175Z,30.54
2022-08-26T00:30:27.495Z,30.69
2022-08-26T00:32:57.505Z,30.57
2022-08-26T00:35:27.974Z,30.58
2022-08-26T00:37:58.380Z,30.57
2022-08-26T00:40:36.324Z,30.66
2022-08-26T00:43:07.584Z,30.59
2022-08-26T00:45:48.407Z,30.74
2022-08-26T00:48:21.032Z,30.69
2022-08-26T00:50:56.795Z,30.73
2022-08-26T00:53:29.990Z,30.63
2022-08-26T00:56:07.346Z,30.66
2022-08-26T00:58:40.207Z,30.63
2022-08-26T01:01:12.326Z,30.66
2022-08-26T01:03:43.798Z,30.71
2022-08-26T01:06:15.520Z,30.64
2022-08-26T01:08:44.874Z,30.69
2022-08-26T01:11:14.522Z,30.74
2022-08-26T01:13:45.917Z,30.85
2022-08-26T01:16:17.566Z,30.94
2022-08-26T01:18:47.995Z,30.94
2022-08-26T01:21:30.787Z,31.08
2022-08-26T01:24:01.972Z,30.97
2022-08-26T01:26:41.501Z,31.15
2022-08-26T01:29:19.051Z,31.21
2022-08-26T01:31:54.855Z,31.22
2022-08-26T01:34:30.450Z,31.24
2022-08-26T01:37:13.638Z,31.38
2022-08-26T01:39:48.789Z,31.34
2022-08-26T01:42:20.029Z,31.37
2022-08-26T01:45:05.202Z,31.53
2022-08-26T01:47:37.597Z,31.50
2022-08-26T01:50:12.236Z,31.71
2022-08-26T01:52:51.660Z,31.57
2022-08-26T01:55:33.030Z,31.52
2022-08-26T01:58:07.003Z,31.72
2022-08-26T02:00:38.133Z,31.74
2022-08-26T02:03:18.075Z,31.85
2022-08-26T02:05:51.311Z,31.85
2022-08-26T02:08:26.778Z,31.81
2022-08-26T02:10:56.823Z,31.82
2022-08-26T02:13:31.558Z,31.92
2022-08-26T02:16:05.055Z,31.99
2022-08-26T02:18:40.753Z,32.10
2022-08-26T02:21:13.087Z,32.02
2022-08-26T02:23:42.692Z,32.06
2022-08-26T02:26:23.116Z,32.35
2022-08-26T02:29:06.535Z,32.29
2022-08-26T02:31:37.185Z,32.24
2022-08-26T02:34:13.124Z,32.30
2022-08-26T02:36:44.525Z,32.37
2022-08-26T02:39:16.904Z,32.42
2022-08-26T02:41:51.637Z,32.36
2022-08-26T02:44:20.869Z,32.31
2022-08-26T02:46:50.098Z,32.18
2022-08-26T02:49:19.468Z,32.38
2022-08-26T02:51:50.492Z,32.49
2022-08-26T02:54:22.770Z,32.45
2022-08-26T02:56:52.920Z,32.56
2022-08-26T02:59:24.479Z,32.68
2022-08-26T03:01:56.105Z,32.66
2022-08-26T03:04:26.245Z,32.78
2022-08-26T03:06:56.334Z,32.83
2022-08-26T03:09:26.328Z,32.87
2022-08-26T03:11:56.448Z,32.90
2022-08-26T03:14:26.073Z,32.80
2022-08-26T03:16:56.438Z,32.87
2022-08-26T03:19:27.204Z,33.10
2022-08-26T03:21:57.857Z,33.10
2022-08-26T03:24:27.805Z,33.20
2022-08-26T03:26:57.164Z,33.08
2022-08-26T03:29:44.742Z,33.31
2022-08-26T03:32:19.129Z,33.46
2022-08-26T03:34:48.829Z,33.49
2022-08-26T03:37:18.125Z,33.63
2022-08-26T03:39:48.122Z,33.77
2022-08-26T03:42:17.741Z,33.82
2022-08-26T03:44:52.646Z,33.97
2022-08-26T03:47:21.936Z,34.12
2022-08-26T03:49:51.075Z,34.28
2022-08-26T03:52:20.984Z,34.19
2022-08-26T03:54:50.303Z,34.11
2022-08-26T03:57:19.742Z,33.90
2022-08-26T03:59:48.663Z,33.75
2022-08-26T04:02:18.370Z,33.60
2022-08-26T04:04:47.907Z,33.37
2022-08-26T04:07:17.232Z,33.30
2022-08-26T04:09:47.778Z,33.33
2022-08-26T04:12:18.118Z,33.52
2022-08-26T04:14:48.503Z,33.48
2022-08-26T04:17:17.729Z,33.51
2022-08-26T04:19:46.885Z,33.36
2022-08-26T04:22:16.280Z,33.49
2022-08-26T04:24:54.225Z,33.50
2022-08-26T04:27:25.364Z,33.42
2022-08-26T04:29:55.290Z,33.50
2022-08-26T04:32:24.784Z,33.52
2022-08-26T04:34:54.059Z,33.58
2022-08-26T04:37:23.096Z,33.76
2022-08-26T04:39:55.374Z,33.96
2022-08-26T04:42:26.255Z,33.81
2022-08-26T04:44:56.440Z,34.08
2022-08-26T04:47:30.346Z,34.19
2022-08-26T04:50:02.135Z,34.40
2022-08-26T04:52:31.202Z,34.56
2022-08-26T04:55:00.182Z,34.52
2022-08-26T04:57:29.728Z,34.46
2022-08-26T04:59:58.982Z,34.60
2022-08-26T05:02:29.780Z,34.76
2022-08-26T05:04:59.369Z,34.89
2022-08-26T05:07:29.090Z,35.00
2022-08-26T05:09:59.148Z,35.18
2022-08-26T05:12:31.293Z,35.36
2022-08-26T05:15:01.035Z,35.31
2022-08-26T05:17:30.493Z,35.36
2022-08-26T05:19:59.658Z,35.25
2022-08-26T05:22:29.170Z,35.34
2022-08-26T05:24:58.325Z,35.39
2022-08-26T05:27:27.601Z,35.32
2022-08-26T05:29:59.857Z,35.30
2022-08-26T05:32:30.362Z,35.31
2022-08-26T05:34:59.489Z,35.67
2022-08-26T05:37:32.004Z,35.64
2022-08-26T05:40:03.565Z,35.27
2022-08-26T05:42:33.134Z,35.45
2022-08-26T05:45:03.628Z,35.23
2022-08-26T05:47:34.043Z,35.22
2022-08-26T05:50:06.530Z,35.48
2022-08-26T05:52:36.622Z,35.32
2022-08-26T05:55:07.748Z,35.44
2022-08-26T05:57:42.236Z,35.29
2022-08-26T06:00:13.965Z,35.45
2022-08-26T06:02:43.982Z,35.77
2022-08-26T06:05:17.889Z,35.39
2022-08-26T06:08:05.326Z,35.32
2022-08-26T06:10:37.348Z,35.45
2022-08-26T06:13:12.545Z,35.30
2022-08-26T06:15:47.478Z,35.28
2022-08-26T06:18:19.001Z,35.37
2022-08-26T06:20:54.582Z,35.36
2022-08-26T06:23:47.594Z,35.30
2022-08-26T06:26:18.150Z,35.23
2022-08-26T06:28:47.341Z,35.30
2022-08-26T06:31:17.057Z,35.51
2022-08-26T06:33:46.864Z,35.24
2022-08-26T06:36:21.232Z,35.70
2022-08-26T06:38:51.390Z,35.89
2022-08-26T06:41:24.118Z,36.04
2022-08-26T06:43:54.424Z,35.55
2022-08-26T06:46:23.887Z,35.63
2022-08-26T06:48:56.389Z,35.70
2022-08-26T06:51:29.168Z,35.57
2022-08-26T06:54:01.261Z,35.51
2022-08-26T06:56:36.289Z,35.60
2022-08-26T06:59:07.240Z,35.54
2022-08-26T07:01:43.011Z,35.57
2022-08-26T07:04:20.218Z,35.46
2022-08-26T07:06:53.849Z,35.72
2022-08-26T07:09:25.621Z,35.94
2022-08-26T07:11:57.117Z,36.23
2022-08-26T07:14:27.331Z,35.80
2022-08-26T07:16:56.928Z,36.16
2022-08-26T07:19:29.882Z,36.39
2022-08-26T07:22:06.778Z,36.50
2022-08-26T07:24:44.326Z,36.50
2022-08-26T07:27:18.440Z,36.71
2022-08-26T07:29:48.194Z,36.53
2022-08-26T07:32:22.847Z,36.59
2022-08-26T07:34:52.787Z,36.42
2022-08-26T07:37:22.285Z,36.26
2022-08-26T07:39:52.575Z,36.37
2022-08-26T07:42:22.172Z,36.26
2022-08-26T07:44:51.897Z,36.02
2022-08-26T07:47:25.430Z,35.88
2022-08-26T07:49:59.474Z,35.69
2022-08-26T07:52:32.010Z,35.64
2022-08-26T07:55:04.098Z,35.41
2022-08-26T07:57:33.961Z,35.24
2022-08-26T08:00:07.631Z,35.18
2022-08-26T08:02:41.010Z,35.12
2022-08-26T08:05:10.820Z,34.78
2022-08-26T08:07:45.348Z,34.88
2022-08-26T08:10:19.345Z,34.39
2022-08-26T08:12:51.917Z,33.61
2022-08-26T08:15:25.993Z,33.43
2022-08-26T08:17:56.622Z,33.08
2022-08-26T08:20:29.551Z,32.84
2022-08-26T08:22:59.600Z,32.67
2022-08-26T08:25:28.703Z,32.23
2022-08-26T08:27:57.736Z,31.81
2022-08-26T08:30:28.056Z,31.69
2022-08-26T08:32:57.678Z,31.29
2022-08-26T08:35:27.430Z,30.80
2022-08-26T08:37:58.031Z,30.56
2022-08-26T08:40:29.281Z,30.37
2022-08-26T08:43:01.573Z,30.08
2022-08-26T08:45:35.943Z,30.02
2022-08-26T08:48:15.248Z,29.65
2022-08-26T08:50:50.466Z,29.08
2022-08-26T08:53:35.096Z,29.34
2022-08-26T08:56:12.732Z,29.20
2022-08-26T08:59:12.459Z,28.67
2022-08-26T09:02:01.993Z,28.48
2022-08-26T09:04:43.654Z,28.43
2022-08-26T09:07:19.908Z,28.71
2022-08-26T09:10:01.034Z,28.69
2022-08-26T09:12:32.888Z,28.74
2022-08-26T09:15:22.217Z,28.80
2022-08-26T09:18:13.269Z,28.90
2022-08-26T09:20:58.453Z,29.41
2022-08-26T09:23:28.399Z,29.21
2022-08-26T09:26:01.468Z,29.61
2022-08-26T09:28:32.815Z,29.69
2022-08-26T09:31:16.048Z,29.73
2022-08-26T09:33:46.035Z,29.78
2022-08-26T09:36:17.135Z,29.48
2022-08-26T09:38:47.383Z,29.71
2022-08-26T09:41:26.939Z,29.93
2022-08-26T09:44:17.885Z,29.99
2022-08-26T09:47:03.669Z,29.78
2022-08-26T09:49:42.778Z,30.01
2022-08-26T09:52:17.229Z,30.14
2022-08-26T09:54:59.790Z,29.87
2022-08-26T09:57:32.826Z,29.75
2022-08-26T10:00:02.611Z,29.80
2022-08-26T10:02:47.833Z,29.72
2022-08-26T10:05:31.818Z,29.76
2022-08-26T10:08:01.559Z,29.78
2022-08-26T10:10:40.910Z,29.80
2022-08-26T10:13:24.490Z,29.75
2022-08-26T10:16:28.605Z,29.83
2022-08-26T10:19:09.459Z,29.83
2022-08-26T10:21:54.012Z,29.88
2022-08-26T10:24:32.009Z,29.89
2022-08-26T10:27:37.150Z,30.15
2022-08-26T10:30:14.576Z,30.03
2022-08-26T10:32:50.545Z,30.03
2022-08-26T10:35:20.954Z,30.00
2022-08-26T10:37:58.096Z,30.02
2022-08-26T10:40:29.197Z,30.08
2022-08-26T10:43:11.335Z,30.17
2022-08-26T10:45:44.714Z,30.33
2022-08-26T10:48:45.484Z,30.20
2022-08-26T10:51:17.713Z,30.28
2022-08-26T10:53:51.704Z,30.33
2022-08-26T10:56:46.009Z,30.63
2022-08-26T10:59:50.831Z,30.47
2022-08-26T11:02:46.953Z,30.55
2022-08-26T11:05:21.244Z,30.47
2022-08-26T11:07:57.455Z,30.49
2022-08-26T11:10:26.834Z,30.58
2022-08-26T11:13:08.042Z,30.96
2022-08-26T11:15:40.338Z,31.03
2022-08-26T11:18:33.594Z,31.10
2022-08-26T11:21:03.592Z,30.96
2022-08-26T11:23:50.695Z,31.12
2022-08-26T11:26:55.027Z,31.29
2022-08-26T11:29:58.416Z,31.43
2022-08-26T11:32:50.772Z,31.52
2022-08-26T11:35:26.058Z,31.55
2022-08-26T11:38:00.735Z,31.65
2022-08-26T11:40:39.444Z,31.57
2022-08-26T11:43:20.653Z,31.58
2022-08-26T11:46:01.589Z,31.67
2022-08-26T11:48:35.965Z,31.62
2022-08-26T11:51:24.217Z,31.61
2022-08-26T11:54:09.202Z,31.52
2022-08-26T11:56:40.783Z,31.69
2022-08-26T11:59:17.409Z,31.84
2022-08-26T12:01:51.891Z,31.83
2022-08-26T12:04:50.429Z,32.01
2022-08-26T12:07:26.332Z,31.94
2022-08-26T12:10:02.082Z,31.86
2022-08-26T12:12:43.510Z,31.74
2022-08-26T12:15:18.213Z,31.68
2022-08-26T12:17:53.382Z,31.78
2022-08-26T12:20:49.534Z,31.91
2022-08-26T12:23:37.808Z,31.88
2022-08-26T12:26:28.655Z,31.86
2022-08-26T12:29:02.180Z,31.72
2022-08-26T12:31:44.331Z,31.65
2022-08-26T12:34:19.556Z,31.51
2022-08-26T12:39:38.899Z,31.48
2022-08-26T12:42:25.830Z,31.55
2022-08-26T12:45:05.107Z,31.46
2022-08-26T12:47:44.211Z,31.50
2022-08-26T12:50:27.052Z,31.54
2022-08-26T12:53:03.129Z,31.53
2022-08-26T12:55:40.261Z,31.50
2022-08-26T12:58:32.640Z,31.58
2022-08-26T13:01:09.465Z,31.56
2022-08-26T13:03:38.724Z,31.40
2022-08-26T13:06:16.046Z,31.52
2022-08-26T13:09:07.505Z,31.47
2022-08-26T13:11:56.579Z,31.56
2022-08-26T13:14:26.122Z,31.38
2022-08-26T13:16:55.941Z,31.39
2022-08-26T13:19:27.203Z,31.50
2022-08-26T13:21:59.307Z,31.49
2022-08-26T13:24:39.862Z,31.45
2022-08-26T13:27:11.079Z,31.38
2022-08-26T13:29:40.790Z,31.41
2022-08-26T13:32:11.103Z,31.40
2022-08-26T13:34:41.575Z,31.36
2022-08-26T13:37:10.811Z,31.33
2022-08-26T13:39:40.466Z,31.29
2022-08-26T13:42:10.499Z,31.33
2022-08-26T13:44:40.146Z,31.32
2022-08-26T13:47:09.629Z,31.27
2022-08-26T13:49:38.715Z,31.30
2022-08-26T13:52:07.923Z,31.30
2022-08-26T13:54:37.397Z,31.25
2022-08-26T13:57:07.186Z,31.20
2022-08-26T13:59:36.486Z,31.19
2022-08-26T14:02:05.961Z,31.27
2022-08-26T14:04:35.298Z,31.23
2022-08-26T14:07:05.954Z,31.18
2022-08-26T14:09:38.295Z,31.20
2022-08-26T14:12:07.857Z,31.22
2022-08-26T14:14:37.272Z,31.16
2022-08-26T14:17:06.317Z,31.22
2022-08-26T14:19:35.773Z,31.22
2022-08-26T14:22:06.035Z,31.21
2022-08-26T14:24:35.347Z,31.17
2022-08-26T14:27:04.594Z,31.11
2022-08-26T14:29:33.700Z,31.16
2022-08-26T14:32:08.366Z,31.23
2022-08-26T14:34:37.560Z,31.19
2022-08-26T14:37:08.169Z,31.22
2022-08-26T14:39:39.164Z,31.20
2022-08-26T14:42:09.996Z,31.23
2022-08-26T14:44:40.326Z,31.16
2022-08-26T14:47:10.271Z,31.19
2022-08-26T14:49:39.564Z,31.23
2022-08-26T14:52:08.836Z,31.23
2022-08-26T14:54:38.794Z,31.20
2022-08-26T14:57:11.511Z,31.26
2022-08-26T14:59:50.077Z,31.31
2022-08-26T15:02:33.196Z,31.19
2022-08-26T15:05:06.547Z,31.28
2022-08-26T15:07:36.247Z,31.24
2022-08-26T15:10:07.239Z,31.29
2022-08-26T15:12:36.783Z,31.25
2022-08-26T15:15:08.458Z,31.29
2022-08-26T15:17:39.667Z,31.27
2022-08-26T15:20:12.283Z,31.24
2022-08-26T15:22:44.337Z,31.23
2022-08-26T15:25:14.879Z,31.24
2022-08-26T15:27:44.407Z,31.17
2022-08-26T15:30:15.324Z,31.24
2022-08-26T15:32:44.539Z,31.22
2022-08-26T15:35:13.821Z,31.22
2022-08-26T15:37:43.019Z,31.12
2022-08-26T15:40:13.118Z,31.13
2022-08-26T15:42:42.296Z,31.07
2022-08-26T15:45:12.840Z,31.11
2022-08-26T15:48:10.888Z,31.08
2022-08-26T15:50:52.233Z,31.18
2022-08-26T15:53:23.047Z,31.06
2022-08-26T15:55:56.329Z,31.10
2022-08-26T15:58:27.293Z,31.08
2022-08-26T16:00:57.934Z,31.07
2022-08-26T16:03:27.201Z,31.03
2022-08-26T16:05:56.256Z,31.03
2022-08-26T16:08:25.589Z,31.06
2022-08-26T16:11:03.344Z,31.04
2022-08-26T16:13:39.708Z,31.04
2022-08-26T16:16:09.884Z,31.06
2022-08-26T16:18:39.195Z,31.02
2022-08-26T16:21:13.328Z,31.01
2022-08-26T16:23:45.263Z,31.02
2022-08-26T16:26:19.136Z,31.07
2022-08-26T16:28:48.806Z,30.97
2022-08-26T16:31:18.223Z,30.95
2022-08-26T16:33:47.644Z,30.93
2022-08-26T16:36:17.553Z,30.95
2022-08-26T16:38:54.583Z,31.05
2022-08-26T16:41:28.148Z,30.94
2022-08-26T16:43:57.712Z,30.75
2022-08-26T16:46:28.760Z,30.79
2022-08-26T16:48:59.934Z,30.80
2022-08-26T16:51:29.996Z,30.87
2022-08-26T16:54:00.473Z,30.79
2022-08-26T16:56:34.033Z,30.85
2022-08-26T16:59:06.241Z,30.91
2022-08-26T17:01:35.928Z,30.85
2022-08-26T17:04:05.170Z,30.88
2022-08-26T17:06:35.248Z,30.77
2022-08-26T17:09:04.995Z,30.80
2022-08-26T17:11:34.678Z,30.81
2022-08-26T17:14:04.146Z,30.83
2022-08-26T17:16:33.771Z,30.82
2022-08-26T17:19:03.780Z,30.66
2022-08-26T17:21:35.514Z,30.80
2022-08-26T17:24:08.246Z,30.82
2022-08-26T17:26:38.737Z,30.64
2022-08-26T17:29:08.486Z,30.75
2022-08-26T17:31:37.660Z,30.74
2022-08-26T17:34:07.401Z,30.80
2022-08-26T17:36:36.485Z,30.65
2022-08-26T17:39:05.735Z,30.74
2022-08-26T17:41:34.867Z,30.75
2022-08-26T17:44:04.173Z,30.77
2022-08-26T17:46:38.200Z,30.74
2022-08-26T17:49:07.692Z,30.71
2022-08-26T17:51:36.850Z,30.70
2022-08-26T17:54:06.196Z,30.70
2022-08-26T17:56:35.433Z,30.74
2022-08-26T17:59:05.217Z,30.74
2022-08-26T18:01:34.781Z,30.65
2022-08-26T18:04:05.405Z,30.78
2022-08-26T18:06:35.946Z,30.74
2022-08-26T18:09:05.406Z,30.72
2022-08-26T18:11:34.984Z,30.73
2022-08-26T18:14:04.013Z,30.68
2022-08-26T18:16:39.742Z,30.65
2022-08-26T18:19:09.878Z,30.57
2022-08-26T18:21:40.246Z,30.67
2022-08-26T18:24:13.823Z,30.65
2022-08-26T18:26:49.829Z,30.63
2022-08-26T18:29:20.886Z,30.68
2022-08-26T18:31:50.777Z,30.61
2022-08-26T18:34:20.581Z,30.53
2022-08-26T18:36:50.001Z,30.48
2022-08-26T18:39:22.122Z,30.38
2022-08-26T18:41:54.213Z,30.54
2022-08-26T18:44:24.484Z,30.54
2022-08-26T18:46:54.077Z,30.49
2022-08-26T18:49:23.880Z,30.36
2022-08-26T18:51:53.418Z,30.36
2022-08-26T18:54:22.471Z,30.44
2022-08-26T18:56:53.324Z,30.37
2022-08-26T18:59:28.473Z,30.35
2022-08-26T19:02:00.139Z,30.39
2022-08-26T19:04:29.462Z,30.42
2022-08-26T19:06:58.916Z,30.44
2022-08-26T19:09:28.422Z,30.50
2022-08-26T19:11:57.834Z,30.52
2022-08-26T19:14:27.821Z,30.41
2022-08-26T19:16:57.163Z,30.43
2022-08-26T19:19:26.205Z,30.45
2022-08-26T19:21:56.330Z,30.43
2022-08-26T19:24:27.413Z,30.46
2022-08-26T19:27:01.172Z,30.56
2022-08-26T19:29:34.071Z,30.58
2022-08-26T19:32:04.319Z,30.50
2022-08-26T19:34:33.901Z,30.51
2022-08-26T19:37:03.490Z,30.53
2022-08-26T19:39:32.927Z,30.42
2022-08-26T19:42:01.920Z,30.40
2022-08-26T19:44:49.766Z,30.39
2022-08-26T19:47:18.987Z,30.33
2022-08-26T19:49:48.086Z,30.35
2022-08-26T19:52:18.133Z,30.40
2022-08-26T19:54:47.188Z,30.41
2022-08-26T19:57:16.907Z,30.44
2022-08-26T19:59:46.554Z,30.44
2022-08-26T20:02:16.458Z,30.44
2022-08-26T20:04:45.733Z,30.46
2022-08-26T20:07:18.506Z,30.45
2022-08-26T20:09:49.895Z,30.52
2022-08-26T20:12:19.810Z,30.46
2022-08-26T20:14:49.168Z,30.46
2022-08-26T20:17:18.388Z,30.47
2022-08-26T20:20:06.622Z,30.45
2022-08-26T20:22:56.303Z,30.49
2022-08-26T20:25:25.831Z,30.45
2022-08-26T20:27:54.743Z,30.45
2022-08-26T20:30:23.889Z,30.47
2022-08-26T20:32:53.803Z,30.46
2022-08-26T20:35:24.894Z,30.47
2022-08-26T20:37:54.136Z,30.44
2022-08-26T20:40:23.664Z,30.44
2022-08-26T20:42:52.855Z,30.24
2022-08-26T20:45:22.259Z,30.28
2022-08-26T20:47:51.861Z,30.29
2022-08-26T20:50:21.324Z,30.31
2022-08-26T20:52:50.901Z,30.24
2022-08-26T20:55:20.197Z,30.23
2022-08-26T20:57:50.433Z,30.25
2022-08-26T21:00:24.565Z,30.26
2022-08-26T21:02:57.407Z,30.26
2022-08-26T21:05:27.657Z,30.22
2022-08-26T21:07:56.983Z,30.21
2022-08-26T21:10:26.639Z,30.19
2022-08-26T21:12:55.878Z,30.11
2022-08-26T21:15:25.452Z,30.20
2022-08-26T21:17:55.058Z,30.17
2022-08-26T21:20:25.573Z,30.10
2022-08-26T21:22:54.612Z,30.08
2022-08-26T21:25:23.882Z,30.11
2022-08-26T21:27:53.424Z,30.09
2022-08-26T21:30:22.533Z,30.09
2022-08-26T21:32:51.756Z,30.09
2022-08-26T21:35:20.888Z,30.08
2022-08-26T21:37:50.204Z,30.10
2022-08-26T21:40:19.561Z,30.08
2022-08-26T21:42:49.002Z,30.08
2022-08-26T21:45:18.358Z,30.05
2022-08-26T21:47:47.786Z,30.04
2022-08-26T21:50:17.116Z,30.03
2022-08-26T21:52:46.284Z,30.01
2022-08-26T21:55:15.321Z,29.98
2022-08-26T21:57:44.657Z,29.97
2022-08-26T22:00:16.726Z,30.02
2022-08-26T22:02:46.565Z,29.99
2022-08-26T22:05:15.586Z,30.02
2022-08-26T22:07:44.932Z,29.98
2022-08-26T22:10:14.233Z,29.96
2022-08-26T22:12:43.445Z,29.99
2022-08-26T22:15:13.288Z,29.97
2022-08-26T22:17:42.408Z,30.00
2022-08-26T22:20:16.726Z,30.00
2022-08-26T22:22:46.251Z,29.97
2022-08-26T22:25:15.350Z,29.94
2022-08-26T22:27:44.933Z,29.94
2022-08-26T22:30:14.242Z,29.96
2022-08-26T22:32:45.101Z,29.97
2022-08-26T22:35:28.774Z,30.05
2022-08-26T22:38:00.094Z,30.08
2022-08-26T22:40:29.395Z,30.00
2022-08-26T22:42:58.791Z,29.89
2022-08-26T22:45:32.477Z,29.92
2022-08-26T22:48:05.672Z,29.94
2022-08-26T22:50:35.195Z,29.99
2022-08-26T22:53:04.629Z,30.03
2022-08-26T22:55:33.891Z,29.97
2022-08-26T22:58:02.955Z,29.92
2022-08-26T23:00:32.612Z,29.92
2022-08-26T23:03:03.808Z,29.98
2022-08-26T23:05:33.640Z,29.83
2022-08-26T23:08:03.095Z,29.84
2022-08-26T23:10:34.145Z,29.89
2022-08-26T23:13:04.675Z,29.83
2022-08-26T23:15:33.709Z,29.84
2022-08-26T23:18:03.679Z,29.88
2022-08-26T23:20:33.992Z,29.89
2022-08-26T23:23:03.748Z,29.87
2022-08-26T23:25:33.708Z,29.88
2022-08-26T23:28:03.226Z,29.89
2022-08-26T23:30:35.647Z,29.85
2022-08-26T23:33:05.069Z,29.81
2022-08-26T23:35:34.030Z,29.77
2022-08-26T23:38:03.826Z,29.80
2022-08-26T23:40:36.969Z,29.90
2022-08-26T23:43:09.883Z,29.89
2022-08-26T23:45:39.541Z,29.81
2022-08-26T23:48:09.919Z,29.79
2022-08-26T23:50:57.796Z,29.80
2022-08-26T23:53:26.968Z,29.74
2022-08-26T23:55:56.477Z,29.81
2022-08-26T23:58:25.660Z,29.87
